Time;durP1;ratioP1;P1;durP2;ratioP2;P2;SDS_P1;SDS_P2;PMS_P1;PMS_P2;Temp;Humidity;BMP_temperature;BMP_pressure;BME280_temperature;BME280_humidity;BME280_pressure;Samples;Min_cycle;Max_cycle;Signal;HPM_P1;HPM_P2
2022/07/16 00:01:22;;;;;;;7.13;2.00;;;;;;;;;;5054312;28;20056;-71
2022/07/16 00:01:44;;;;;;;9.65;2.53;;;;;;;;;;5053847;28;20402;-72
2022/07/16 00:04:10;;;;;;;8.20;1.80;;;;;;;;;;5054136;28;20025;-71
2022/07/16 00:06:36;;;;;;;6.57;1.88;;;;;;;;;;5052749;28;20065;-71
2022/07/16 00:09:03;;;;;;;5.20;2.33;;;;;;;;;;5054358;28;20029;-73
2022/07/16 00:11:29;;;;;;;7.78;2.38;;;;;;;;;;5054103;28;20486;-72
2022/07/16 00:13:55;;;;;;;7.78;2.55;;;;;;;;;;5054091;28;20031;-72
2022/07/16 00:16:21;;;;;;;8.25;2.83;;;;;;;;;;5053710;28;20033;-71
2022/07/16 00:21:32;;;;;;;12.73;3.25;;;;;;;;;;5053878;28;20087;-71
2022/07/16 00:23:58;;;;;;;10.43;2.80;;;;;;;;;;5053617;28;20424;-71
2022/07/16 00:26:23;;;;;;;8.68;2.60;;;;;;;;;;5053705;28;20036;-71
2022/07/16 00:28:49;;;;;;;6.13;2.65;;;;;;;;;;5053910;28;20032;-72
2022/07/16 00:31:16;;;;;;;7.25;2.78;;;;;;;;;;5059212;28;20086;-72
2022/07/16 00:33:42;;;;;;;9.23;2.90;;;;;;;;;;5062039;28;20029;-71
2022/07/16 00:36:08;;;;;;;9.20;3.13;;;;;;;;;;5053416;28;20021;-70
2022/07/16 00:38:34;;;;;;;9.05;3.30;;;;;;;;;;5053739;28;20025;-71
2022/07/16 00:41:00;;;;;;;7.35;3.50;;;;;;;;;;5053815;28;20718;-71
2022/07/16 00:43:26;;;;;;;8.60;3.88;;;;;;;;;;5052734;28;20370;-72
2022/07/16 00:45:52;;;;;;;10.40;3.67;;;;;;;;;;5056371;28;20071;-72
2022/07/16 00:48:18;;;;;;;12.32;3.38;;;;;;;;;;5058053;28;20102;-72
2022/07/16 00:50:45;;;;;;;9.88;3.60;;;;;;;;;;5059212;28;20079;-72
2022/07/16 00:53:11;;;;;;;8.25;3.55;;;;;;;;;;5055822;28;20027;-72
2022/07/16 00:55:38;;;;;;;8.18;3.58;;;;;;;;;;5052820;28;20075;-71
2022/07/16 00:58:04;;;;;;;9.15;4.22;;;;;;;;;;5053007;28;20504;-72
2022/07/16 01:00:30;;;;;;;6.93;3.42;;;;;;;;;;5051925;28;20021;-70
2022/07/16 01:02:57;;;;;;;10.75;4.10;;;;;;;;;;5052721;28;20020;-71
2022/07/16 01:05:23;;;;;;;6.72;3.70;;;;;;;;;;5051361;28;20501;-72
2022/07/16 01:07:49;;;;;;;9.98;3.78;;;;;;;;;;5051758;28;20028;-77
2022/07/16 01:10:18;;;;;;;10.63;4.20;;;;;;;;;;5050697;28;20486;-72
2022/07/16 01:12:44;;;;;;;11.00;4.65;;;;;;;;;;5052836;28;20024;-72
2022/07/16 01:15:10;;;;;;;9.27;4.18;;;;;;;;;;5052401;28;20036;-72
2022/07/16 01:17:36;;;;;;;11.95;4.70;;;;;;;;;;5051806;28;20390;-72
2022/07/16 01:20:02;;;;;;;9.68;4.63;;;;;;;;;;5052295;28;20025;-72
2022/07/16 01:22:28;;;;;;;16.70;4.53;;;;;;;;;;5052444;28;20021;-72
2022/07/16 01:24:54;;;;;;;10.05;4.47;;;;;;;;;;5052584;28;20024;-72
2022/07/16 01:27:20;;;;;;;10.90;4.57;;;;;;;;;;5050351;28;20068;-72
2022/07/16 01:29:47;;;;;;;10.35;4.30;;;;;;;;;;5052368;28;20097;-72
2022/07/16 01:32:13;;;;;;;8.00;4.40;;;;;;;;;;5055034;28;20035;-71
2022/07/16 01:34:39;;;;;;;11.65;4.90;;;;;;;;;;5054436;28;20055;-71
2022/07/16 01:37:06;;;;;;;11.02;5.13;;;;;;;;;;5049385;28;20064;-71
2022/07/16 01:39:35;;;;;;;10.20;4.63;;;;;;;;;;5052503;28;20539;-72
2022/07/16 01:42:02;;;;;;;8.00;4.40;;;;;;;;;;5052535;28;20025;-73
2022/07/16 01:44:29;;;;;;;8.75;4.35;;;;;;;;;;5052746;28;20043;-72
2022/07/16 01:46:56;;;;;;;8.48;4.25;;;;;;;;;;5051168;28;20029;-72
2022/07/16 01:49:22;;;;;;;10.98;4.75;;;;;;;;;;5072389;28;20092;-72
2022/07/16 01:51:48;;;;;;;9.75;4.78;;;;;;;;;;5051386;28;20020;-72
2022/07/16 01:54:14;;;;;;;9.35;4.25;;;;;;;;;;5051620;28;20097;-72
2022/07/16 01:56:40;;;;;;;11.75;5.72;;;;;;;;;;5051141;28;20029;-74
2022/07/16 01:59:06;;;;;;;11.55;5.10;;;;;;;;;;5052356;28;20059;-72
2022/07/16 02:01:32;;;;;;;10.82;4.90;;;;;;;;;;5051672;28;20032;-71
2022/07/16 02:03:58;;;;;;;11.32;4.50;;;;;;;;;;5051631;28;20025;-71
2022/07/16 02:06:24;;;;;;;10.35;4.25;;;;;;;;;;5051474;28;20025;-74
2022/07/16 02:08:50;;;;;;;9.88;4.10;;;;;;;;;;5050434;28;20482;-71
2022/07/16 02:11:16;;;;;;;7.35;4.18;;;;;;;;;;5051691;28;20033;-71
2022/07/16 02:13:42;;;;;;;9.45;4.20;;;;;;;;;;5051596;28;20079;-72
2022/07/16 02:16:09;;;;;;;6.43;4.20;;;;;;;;;;5050398;28;20029;-72
2022/07/16 02:18:35;;;;;;;10.23;4.32;;;;;;;;;;5051649;28;20032;-72
2022/07/16 02:21:02;;;;;;;10.05;4.22;;;;;;;;;;5051545;28;20025;-71
2022/07/16 02:23:28;;;;;;;6.18;3.70;;;;;;;;;;5051510;28;20025;-72
2022/07/16 02:25:54;;;;;;;7.15;4.20;;;;;;;;;;5051338;28;20032;-71
2022/07/16 02:28:20;;;;;;;6.18;3.42;;;;;;;;;;5051835;28;20029;-72
2022/07/16 02:30:47;;;;;;;4.28;3.13;;;;;;;;;;5055747;28;20029;-72
2022/07/16 02:33:15;;;;;;;6.88;2.90;;;;;;;;;;5058289;28;20025;-71
2022/07/16 02:35:41;;;;;;;6.70;3.22;;;;;;;;;;5055544;28;20044;-71
2022/07/16 02:38:07;;;;;;;5.32;2.20;;;;;;;;;;5055537;28;20021;-71
2022/07/16 02:40:34;;;;;;;7.63;2.17;;;;;;;;;;5055509;28;20025;-71
2022/07/16 02:43:01;;;;;;;5.93;2.42;;;;;;;;;;5055578;28;20474;-70
2022/07/16 02:45:27;;;;;;;6.65;2.40;;;;;;;;;;5055256;28;20544;-70
2022/07/16 02:47:53;;;;;;;5.50;2.50;;;;;;;;;;5055478;28;20108;-72
2022/07/16 02:50:19;;;;;;;6.18;2.08;;;;;;;;;;5055458;28;20430;-72
2022/07/16 02:52:45;;;;;;;9.27;1.83;;;;;;;;;;5055188;28;20068;-72
2022/07/16 02:55:11;;;;;;;5.28;2.00;;;;;;;;;;5054998;28;20072;-72
2022/07/16 02:57:37;;;;;;;5.85;1.90;;;;;;;;;;5053867;28;20032;-72
2022/07/16 03:00:05;;;;;;;4.05;1.95;;;;;;;;;;5053967;28;20094;-72
2022/07/16 03:02:31;;;;;;;5.82;1.83;;;;;;;;;;5055302;28;20033;-72
2022/07/16 03:04:57;;;;;;;5.57;1.83;;;;;;;;;;5055370;28;20025;-71
2022/07/16 03:07:24;;;;;;;11.93;1.90;;;;;;;;;;5054833;28;20409;-71
2022/07/16 03:09:50;;;;;;;5.18;2.20;;;;;;;;;;5055102;28;20105;-72
2022/07/16 03:12:18;;;;;;;7.50;1.95;;;;;;;;;;5055024;28;20045;-72
2022/07/16 03:14:44;;;;;;;8.23;2.22;;;;;;;;;;5055550;28;20024;-71
2022/07/16 03:17:09;;;;;;;6.35;1.70;;;;;;;;;;5054970;28;20036;-71
2022/07/16 03:19:35;;;;;;;6.90;2.22;;;;;;;;;;5054782;28;20025;-71
2022/07/16 03:22:01;;;;;;;7.97;1.73;;;;;;;;;;5054681;28;20036;-74
2022/07/16 03:24:28;;;;;;;9.70;2.55;;;;;;;;;;5053402;28;20025;-71
2022/07/16 03:26:54;;;;;;;9.48;1.92;;;;;;;;;;5054758;28;20033;-72
2022/07/16 03:29:20;;;;;;;8.18;2.20;;;;;;;;;;5054855;28;20387;-70
2022/07/16 03:31:46;;;;;;;7.93;2.05;;;;;;;;;;5054690;28;20044;-72
2022/07/16 03:34:12;;;;;;;7.60;2.08;;;;;;;;;;5054998;28;20037;-71
2022/07/16 03:36:38;;;;;;;6.25;2.30;;;;;;;;;;5055210;28;20028;-72
2022/07/16 03:39:04;;;;;;;6.82;2.00;;;;;;;;;;5057827;28;20448;-72
2022/07/16 03:41:31;;;;;;;7.50;2.00;;;;;;;;;;5067892;28;20025;-73
2022/07/16 03:43:57;;;;;;;7.50;2.10;;;;;;;;;;5066849;28;20044;-72
2022/07/16 03:46:23;;;;;;;8.55;1.83;;;;;;;;;;5068845;28;20032;-71
2022/07/16 03:48:49;;;;;;;6.20;1.92;;;;;;;;;;5067543;28;20028;-73
2022/07/16 03:51:15;;;;;;;11.75;2.38;;;;;;;;;;5069444;28;20029;-72
2022/07/16 03:53:41;;;;;;;12.30;2.38;;;;;;;;;;5061823;28;20033;-72
2022/07/16 03:56:07;;;;;;;10.90;1.90;;;;;;;;;;5055406;28;20029;-71
2022/07/16 03:58:33;;;;;;;6.38;1.90;;;;;;;;;;5053247;28;20048;-72
2022/07/16 04:00:59;;;;;;;7.25;2.38;;;;;;;;;;5055866;28;20028;-73
2022/07/16 04:03:25;;;;;;;8.40;2.22;;;;;;;;;;5055086;28;20075;-72
2022/07/16 04:05:51;;;;;;;7.05;2.30;;;;;;;;;;5054707;28;20112;-72
2022/07/16 04:08:17;;;;;;;10.50;2.30;;;;;;;;;;5053907;28;20104;-72
2022/07/16 04:10:43;;;;;;;12.95;2.15;;;;;;;;;;5053766;28;20108;-72
2022/07/16 04:13:09;;;;;;;6.07;2.08;;;;;;;;;;5053749;28;20136;-73
2022/07/16 04:15:35;;;;;;;6.60;1.95;;;;;;;;;;5053488;28;20029;-72
2022/07/16 04:18:01;;;;;;;9.40;2.13;;;;;;;;;;5054070;28;20029;-72
2022/07/16 04:20:27;;;;;;;7.93;2.13;;;;;;;;;;5053684;28;20021;-72
2022/07/16 04:22:53;;;;;;;10.25;2.67;;;;;;;;;;5053294;28;20024;-71
2022/07/16 04:25:19;;;;;;;6.90;2.03;;;;;;;;;;5053211;28;20029;-70
2022/07/16 04:27:45;;;;;;;10.55;2.20;;;;;;;;;;5053149;28;20096;-71
2022/07/16 04:30:12;;;;;;;10.80;2.50;;;;;;;;;;5053310;28;20103;-71
2022/07/16 04:32:38;;;;;;;7.60;2.20;;;;;;;;;;5053562;28;20026;-72
2022/07/16 04:35:05;;;;;;;9.73;2.20;;;;;;;;;;5053383;28;20025;-72
2022/07/16 04:37:31;;;;;;;9.82;2.15;;;;;;;;;;5053560;28;20021;-74
2022/07/16 04:39:57;;;;;;;8.80;2.08;;;;;;;;;;5053350;28;20056;-71
2022/07/16 04:42:23;;;;;;;11.75;2.40;;;;;;;;;;5053306;28;20075;-72
2022/07/16 04:44:49;;;;;;;7.57;1.92;;;;;;;;;;5053388;28;20459;-72
2022/07/16 04:47:15;;;;;;;9.88;2.20;;;;;;;;;;5053058;28;20488;-72
2022/07/16 04:49:41;;;;;;;16.80;2.80;;;;;;;;;;5053068;28;20040;-72
2022/07/16 04:52:07;;;;;;;9.98;2.38;;;;;;;;;;5052715;28;20025;-72
2022/07/16 04:54:33;;;;;;;9.55;2.42;;;;;;;;;;5094176;22;20131;-75
2022/07/16 04:56:59;;;;;;;7.57;2.47;;;;;;;;;;5094026;28;20036;-76
2022/07/16 04:59:25;;;;;;;6.30;1.80;;;;;;;;;;5094860;28;20123;-77
2022/07/16 05:01:51;;;;;;;7.70;2.08;;;;;;;;;;5094412;28;20082;-75
2022/07/16 05:04:17;;;;;;;7.22;2.30;;;;;;;;;;5094777;28;20028;-77
2022/07/16 05:06:43;;;;;;;8.02;2.50;;;;;;;;;;5102669;28;20522;-75
2022/07/16 05:09:10;;;;;;;6.93;2.42;;;;;;;;;;5093641;28;20035;-75
2022/07/16 05:11:35;;;;;;;9.07;2.13;;;;;;;;;;5093466;28;20396;-77
2022/07/16 05:14:01;;;;;;;10.98;2.28;;;;;;;;;;5093631;28;20020;-77
2022/07/16 05:16:27;;;;;;;15.88;3.60;;;;;;;;;;5093544;28;20028;-77
2022/07/16 05:18:53;;;;;;;9.00;1.80;;;;;;;;;;5094119;28;20031;-76
2022/07/16 05:21:19;;;;;;;7.95;2.78;;;;;;;;;;5093336;28;20401;-76
2022/07/16 05:23:45;;;;;;;7.60;1.80;;;;;;;;;;5091718;28;20111;-76
2022/07/16 05:26:11;;;;;;;9.38;2.20;;;;;;;;;;5093134;28;20032;-76
2022/07/16 05:28:37;;;;;;;6.85;1.80;;;;;;;;;;5093387;28;20384;-77
2022/07/16 05:31:03;;;;;;;10.25;2.30;;;;;;;;;;5094313;28;20055;-77
2022/07/16 05:33:32;;;;;;;12.82;2.88;;;;;;;;;;5093993;28;20040;-77
2022/07/16 05:35:58;;;;;;;8.40;2.00;;;;;;;;;;5092943;28;20073;-78
2022/07/16 05:38:23;;;;;;;9.20;1.83;;;;;;;;;;5094467;28;20032;-77
2022/07/16 05:40:49;;;;;;;9.30;1.90;;;;;;;;;;5092992;28;20059;-77
2022/07/16 05:43:15;;;;;;;5.65;1.50;;;;;;;;;;5092897;28;20024;-78
2022/07/16 05:45:41;;;;;;;8.57;1.80;;;;;;;;;;5092678;28;20024;-79
2022/07/16 05:48:08;;;;;;;8.57;1.83;;;;;;;;;;5093022;28;20058;-77
2022/07/16 05:50:34;;;;;;;8.18;1.85;;;;;;;;;;5093549;28;20020;-78
2022/07/16 05:53:00;;;;;;;4.03;1.40;;;;;;;;;;5106899;28;20507;-81
2022/07/16 05:55:27;;;;;;;8.38;1.85;;;;;;;;;;5116326;28;20035;-79
2022/07/16 05:57:53;;;;;;;13.40;1.38;;;;;;;;;;5093407;28;20032;-77
2022/07/16 06:00:19;;;;;;;10.57;1.60;;;;;;;;;;5092414;28;20081;-77
2022/07/16 06:02:45;;;;;;;5.50;1.40;;;;;;;;;;5090828;28;20021;-77
2022/07/16 06:05:11;;;;;;;9.73;1.50;;;;;;;;;;5092324;28;20020;-77
2022/07/16 06:07:38;;;;;;;4.13;1.23;;;;;;;;;;5093121;28;20073;-77
2022/07/16 06:10:04;;;;;;;9.15;1.38;;;;;;;;;;5092788;28;20016;-75
2022/07/16 06:12:30;;;;;;;4.70;1.30;;;;;;;;;;5092861;28;20412;-77
2022/07/16 06:14:56;;;;;;;12.90;2.03;;;;;;;;;;5093211;28;20024;-79
2022/07/16 06:17:22;;;;;;;4.95;1.58;;;;;;;;;;5092793;28;20024;-76
2022/07/16 06:19:48;;;;;;;12.05;2.05;;;;;;;;;;5093066;28;20076;-76
2022/07/16 06:22:14;;;;;;;13.68;1.77;;;;;;;;;;5092650;28;20031;-77
2022/07/16 06:24:40;;;;;;;11.82;2.28;;;;;;;;;;5093144;28;20414;-77
2022/07/16 06:27:06;;;;;;;7.03;1.40;;;;;;;;;;5092332;28;20539;-78
2022/07/16 06:29:32;;;;;;;9.65;1.95;;;;;;;;;;5081004;28;20366;-76
2022/07/16 06:31:58;;;;;;;11.52;2.08;;;;;;;;;;5072934;28;20055;-76
2022/07/16 06:34:24;;;;;;;8.35;2.05;;;;;;;;;;5074852;28;20028;-76
2022/07/16 06:36:50;;;;;;;12.13;1.85;;;;;;;;;;5075168;28;20035;-76
2022/07/16 06:39:15;;;;;;;10.68;2.00;;;;;;;;;;5076170;28;20043;-77
2022/07/16 06:41:41;;;;;;;10.10;1.50;;;;;;;;;;5071717;28;20366;-76
2022/07/16 06:44:09;;;;;;;12.38;1.98;;;;;;;;;;5073711;28;20513;-77
2022/07/16 06:46:35;;;;;;;10.13;1.50;;;;;;;;;;5073239;28;20021;-76
2022/07/16 06:49:01;;;;;;;11.98;1.50;;;;;;;;;;5075210;28;20028;-76
2022/07/16 06:51:27;;;;;;;12.63;1.77;;;;;;;;;;5078870;28;20020;-76
2022/07/16 06:53:53;;;;;;;10.20;2.20;;;;;;;;;;5071741;28;20043;-77
2022/07/16 06:56:19;;;;;;;12.45;1.83;;;;;;;;;;5071750;28;20025;-75
2022/07/16 06:58:45;;;;;;;13.95;1.92;;;;;;;;;;5072329;28;20028;-74
2022/07/16 07:01:11;;;;;;;11.00;1.67;;;;;;;;;;5071635;28;20031;-76
2022/07/16 07:03:40;;;;;;;10.13;1.60;;;;;;;;;;5071897;28;20025;-77
2022/07/16 07:06:07;;;;;;;13.98;1.60;;;;;;;;;;5071300;28;20036;-75
2022/07/16 07:08:33;;;;;;;8.75;1.50;;;;;;;;;;5071762;28;20384;-75
2022/07/16 07:10:59;;;;;;;16.88;2.22;;;;;;;;;;5072500;28;20025;-76
2022/07/16 07:13:26;;;;;;;11.27;1.52;;;;;;;;;;5072845;28;20636;-77
2022/07/16 07:15:52;;;;;;;14.93;1.60;;;;;;;;;;5077690;28;20047;-76
2022/07/16 07:18:18;;;;;;;11.30;1.70;;;;;;;;;;5074501;28;20481;-75
2022/07/16 07:20:44;;;;;;;12.15;2.00;;;;;;;;;;5074695;28;20032;-76
2022/07/16 07:23:10;;;;;;;13.23;1.52;;;;;;;;;;5075973;28;20029;-78
2022/07/16 07:25:36;;;;;;;11.85;1.90;;;;;;;;;;5075963;28;20029;-79
2022/07/16 07:28:02;;;;;;;15.20;2.10;;;;;;;;;;5079558;28;20110;-77
2022/07/16 07:30:29;;;;;;;13.77;2.25;;;;;;;;;;5081297;28;20092;-77
2022/07/16 07:32:55;;;;;;;10.40;1.70;;;;;;;;;;5083439;28;20028;-77
2022/07/16 07:35:21;;;;;;;10.75;2.00;;;;;;;;;;5075428;28;20024;-77
2022/07/16 07:37:47;;;;;;;8.95;1.90;;;;;;;;;;5075608;28;20104;-76
2022/07/16 07:40:14;;;;;;;16.48;1.70;;;;;;;;;;5074157;28;20496;-76
2022/07/16 07:42:39;;;;;;;8.15;1.55;;;;;;;;;;5075330;28;20024;-78
2022/07/16 07:45:06;;;;;;;11.57;2.15;;;;;;;;;;5074986;28;20021;-79
2022/07/16 07:47:32;;;;;;;16.00;1.83;;;;;;;;;;5076850;28;20029;-78
2022/07/16 07:49:58;;;;;;;13.60;1.55;;;;;;;;;;5075076;28;20032;-79
2022/07/16 07:52:24;;;;;;;15.55;1.85;;;;;;;;;;5075101;28;20100;-78
2022/07/16 07:54:50;;;;;;;10.93;1.75;;;;;;;;;;5074952;28;20068;-77
2022/07/16 07:57:16;;;;;;;14.75;1.98;;;;;;;;;;5074691;28;20094;-77
2022/07/16 07:59:42;;;;;;;15.38;2.50;;;;;;;;;;5074860;28;20031;-77
2022/07/16 08:02:08;;;;;;;11.90;1.73;;;;;;;;;;5075067;28;20028;-77
2022/07/16 08:04:34;;;;;;;10.85;2.42;;;;;;;;;;5074664;28;20047;-76
2022/07/16 08:07:00;;;;;;;10.20;1.83;;;;;;;;;;5074678;28;20028;-76
2022/07/16 08:09:26;;;;;;;13.05;2.00;;;;;;;;;;5075427;28;20374;-76
2022/07/16 08:11:53;;;;;;;12.57;1.80;;;;;;;;;;5075003;28;20033;-77
2022/07/16 08:14:18;;;;;;;11.60;2.10;;;;;;;;;;5076143;28;20043;-76
2022/07/16 08:16:44;;;;;;;10.82;1.40;;;;;;;;;;5073619;28;20442;-77
2022/07/16 08:19:10;;;;;;;8.25;1.45;;;;;;;;;;5075404;28;20024;-77
2022/07/16 08:21:36;;;;;;;13.50;2.05;;;;;;;;;;5073789;28;20025;-76
2022/07/16 08:26:48;;;;;;;16.00;3.00;;;;;;;;;;5079346;28;20039;-77
2022/07/16 08:29:14;;;;;;;11.18;1.48;;;;;;;;;;5083559;28;20029;-77
2022/07/16 08:31:40;;;;;;;13.02;1.70;;;;;;;;;;5080436;28;20033;-77
2022/07/16 08:34:06;;;;;;;10.07;1.63;;;;;;;;;;5073296;28;20115;-75
2022/07/16 08:36:33;;;;;;;17.55;1.83;;;;;;;;;;5073805;28;20063;-76
2022/07/16 08:38:59;;;;;;;11.27;1.73;;;;;;;;;;5073882;28;20027;-76
2022/07/16 08:41:25;;;;;;;9.27;1.75;;;;;;;;;;5074052;28;20025;-76
2022/07/16 08:43:51;;;;;;;10.10;2.33;;;;;;;;;;5074210;28;20081;-75
2022/07/16 08:46:20;;;;;;;10.50;1.73;;;;;;;;;;5072348;28;20032;-75
2022/07/16 08:48:48;;;;;;;7.10;1.48;;;;;;;;;;5075087;28;20369;-76
2022/07/16 08:51:14;;;;;;;13.35;1.48;;;;;;;;;;5074753;28;20028;-77
2022/07/16 08:53:40;;;;;;;4.97;1.20;;;;;;;;;;5074035;28;20029;-78
2022/07/16 08:56:06;;;;;;;13.23;1.50;;;;;;;;;;5074961;28;20036;-79
2022/07/16 08:58:33;;;;;;;15.88;1.80;;;;;;;;;;5072673;28;20421;-78
2022/07/16 09:00:59;;;;;;;10.93;1.80;;;;;;;;;;5074517;28;20021;-78
2022/07/16 09:03:25;;;;;;;7.60;1.42;;;;;;;;;;5073699;28;20017;-76
2022/07/16 09:05:51;;;;;;;14.02;1.98;;;;;;;;;;5073337;28;20078;-77
2022/07/16 09:08:18;;;;;;;16.75;1.95;;;;;;;;;;5074059;28;20030;-77
2022/07/16 09:10:44;;;;;;;8.55;1.58;;;;;;;;;;5072436;28;20401;-76
2022/07/16 09:13:10;;;;;;;17.20;2.13;;;;;;;;;;5073431;28;20029;-76
2022/07/16 09:15:38;;;;;;;6.25;1.40;;;;;;;;;;5075964;28;20042;-76
2022/07/16 09:18:13;;;;;;;12.35;1.77;;;;;;;;;;5076949;28;20013;-75
2022/07/16 09:20:41;;;;;;;13.18;1.48;;;;;;;;;;5076017;28;20530;-75
2022/07/16 09:23:17;;;;;;;11.02;1.77;;;;;;;;;;5083896;28;20497;-75
2022/07/16 09:25:50;;;;;;;9.77;2.78;;;;;;;;;;5090052;28;20033;-76
2022/07/16 09:28:16;;;;;;;9.68;2.10;;;;;;;;;;5089041;28;20033;-76
2022/07/16 09:30:42;;;;;;;12.05;3.60;;;;;;;;;;5079913;28;20107;-75
2022/07/16 09:33:13;;;;;;;19.90;2.90;;;;;;;;;;5073527;28;20031;-77
2022/07/16 09:35:39;;;;;;;10.73;2.13;;;;;;;;;;5073023;28;20028;-76
2022/07/16 09:38:09;;;;;;;14.32;2.22;;;;;;;;;;5073318;28;20021;-75
2022/07/16 09:40:42;;;;;;;12.35;1.90;;;;;;;;;;5083272;28;20016;-77
2022/07/16 09:43:14;;;;;;;9.95;2.10;;;;;;;;;;5095254;28;20031;-77
2022/07/16 09:45:41;;;;;;;15.05;2.67;;;;;;;;;;5102776;28;20020;-76
2022/07/16 09:48:28;;;;;;;12.48;1.90;;;;;;;;;;5094916;28;20020;-76
2022/07/16 09:50:55;;;;;;;8.10;1.70;;;;;;;;;;5091881;28;20461;-75
2022/07/16 09:53:22;;;;;;;10.57;1.50;;;;;;;;;;5113962;28;20038;-76
2022/07/16 09:56:05;;;;;;;9.85;1.90;;;;;;;;;;5114220;28;20016;-76
2022/07/16 09:58:31;;;;;;;17.48;2.08;;;;;;;;;;5116896;28;20054;-76
2022/07/16 10:00:58;;;;;;;8.73;1.73;;;;;;;;;;5114385;28;20032;-77
2022/07/16 10:03:24;;;;;;;19.30;2.33;;;;;;;;;;5104238;28;20026;-76
2022/07/16 10:05:50;;;;;;;14.77;2.58;;;;;;;;;;5094672;28;20435;-77
2022/07/16 10:08:17;;;;;;;9.35;1.50;;;;;;;;;;5094557;28;20028;-77
2022/07/16 10:10:44;;;;;;;10.10;2.30;;;;;;;;;;5093284;28;20392;-78
2022/07/16 10:13:10;;;;;;;10.43;1.70;;;;;;;;;;5100223;28;20422;-78
2022/07/16 10:15:36;;;;;;;7.70;1.50;;;;;;;;;;5100049;28;20111;-79
2022/07/16 10:18:03;;;;;;;11.68;2.25;;;;;;;;;;5095620;28;20647;-78
2022/07/16 10:20:34;;;;;;;11.15;2.33;;;;;;;;;;5094928;28;20427;-77
2022/07/16 10:23:04;;;;;;;13.80;2.28;;;;;;;;;;5096468;28;20024;-75
2022/07/16 10:25:31;;;;;;;18.65;3.13;;;;;;;;;;5098832;28;20028;-78
2022/07/16 10:28:02;;;;;;;10.02;2.70;;;;;;;;;;5107403;28;20076;-76
2022/07/16 10:30:32;;;;;;;13.38;2.30;;;;;;;;;;5103248;28;20087;-76
2022/07/16 10:33:05;;;;;;;11.05;2.35;;;;;;;;;;5105178;28;20050;-75
2022/07/16 10:35:35;;;;;;;12.07;1.95;;;;;;;;;;5103093;28;20048;-75
2022/07/16 10:38:08;;;;;;;10.55;2.25;;;;;;;;;;5098303;28;20027;-79
2022/07/16 10:40:38;;;;;;;11.55;2.13;;;;;;;;;;5093049;28;20024;-77
2022/07/16 10:43:15;;;;;;;19.48;2.85;;;;;;;;;;5093296;28;20078;-77
2022/07/16 10:45:58;;;;;;;12.30;2.42;;;;;;;;;;5092559;28;20085;-77
2022/07/16 10:48:25;;;;;;;16.85;2.47;;;;;;;;;;5092388;28;20099;-75
2022/07/16 10:51:10;;;;;;;11.50;2.47;;;;;;;;;;5094899;28;20024;-79
2022/07/16 10:53:56;;;;;;;17.88;2.80;;;;;;;;;;5095850;28;20034;-77
2022/07/16 10:56:31;;;;;;;13.30;2.15;;;;;;;;;;5107308;22;20068;-78
2022/07/16 10:58:58;;;;;;;16.15;2.05;;;;;;;;;;5085453;28;20097;-80
2022/07/16 11:01:24;;;;;;;14.05;2.78;;;;;;;;;;5066693;28;20021;-78
2022/07/16 11:03:53;;;;;;;12.77;2.25;;;;;;;;;;5084313;28;20085;-79
2022/07/16 11:06:19;;;;;;;13.32;2.20;;;;;;;;;;5085036;28;20029;-79
2022/07/16 11:08:46;;;;;;;13.25;1.90;;;;;;;;;;5096399;28;20016;-77
2022/07/16 11:11:12;;;;;;;13.07;3.35;;;;;;;;;;5093941;28;20025;-78
2022/07/16 11:13:38;;;;;;;14.25;2.20;;;;;;;;;;5087208;28;20001;-78
2022/07/16 11:16:08;;;;;;;12.60;2.10;;;;;;;;;;5095595;28;20024;-76
2022/07/16 11:18:41;;;;;;;13.60;2.10;;;;;;;;;;5096553;28;20016;-75
2022/07/16 11:21:10;;;;;;;14.98;2.33;;;;;;;;;;5087185;28;20547;-80
2022/07/16 11:23:49;;;;;;;12.90;2.30;;;;;;;;;;5083815;28;20060;-78
2022/07/16 11:26:15;;;;;;;10.40;1.80;;;;;;;;;;5083764;28;20082;-80
2022/07/16 11:28:55;;;;;;;7.80;1.92;;;;;;;;;;5086752;28;20028;-79
2022/07/16 11:31:25;;;;;;;9.20;2.10;;;;;;;;;;5086531;28;20032;-78
2022/07/16 11:33:52;;;;;;;14.95;2.13;;;;;;;;;;5085487;28;20024;-78
2022/07/16 11:36:19;;;;;;;12.50;2.00;;;;;;;;;;5087192;28;20031;-78
2022/07/16 11:38:45;;;;;;;14.18;1.88;;;;;;;;;;5087775;28;20021;-78
2022/07/16 11:41:12;;;;;;;8.60;1.88;;;;;;;;;;5086922;28;20084;-78
2022/07/16 11:43:38;;;;;;;12.45;2.30;;;;;;;;;;5084383;28;20184;-80
2022/07/16 11:46:04;;;;;;;10.38;1.77;;;;;;;;;;5086597;28;20033;-77
2022/07/16 11:48:37;;;;;;;8.40;2.00;;;;;;;;;;5089998;28;20085;-80
2022/07/16 11:51:07;;;;;;;11.05;2.70;;;;;;;;;;5085820;28;20027;-79
2022/07/16 11:53:36;;;;;;;14.38;2.63;;;;;;;;;;5088725;28;20051;-79
2022/07/16 11:56:02;;;;;;;12.65;2.17;;;;;;;;;;5087355;28;20055;-79
2022/07/16 11:58:28;;;;;;;10.88;1.85;;;;;;;;;;5085530;28;20021;-77
2022/07/16 12:00:54;;;;;;;14.00;2.42;;;;;;;;;;5084032;28;20079;-80
2022/07/16 12:03:21;;;;;;;11.15;1.70;;;;;;;;;;5083607;28;20017;-78
2022/07/16 12:05:47;;;;;;;5.60;2.03;;;;;;;;;;5086553;28;20038;-77
2022/07/16 12:08:14;;;;;;;11.68;2.30;;;;;;;;;;5087451;28;20485;-77
2022/07/16 12:10:40;;;;;;;19.40;1.83;;;;;;;;;;5087696;28;20021;-77
2022/07/16 12:13:07;;;;;;;11.63;2.10;;;;;;;;;;5089284;28;20025;-77
2022/07/16 12:15:52;;;;;;;12.98;1.77;;;;;;;;;;5087238;28;20084;-78
2022/07/16 12:18:18;;;;;;;;;;;;;;;;;;5088536;28;20025;-78
2022/07/16 12:20:44;;;;;;;11.93;2.50;;;;;;;;;;5085958;28;20370;-79
2022/07/16 12:23:12;;;;;;;10.10;2.05;;;;;;;;;;5083388;28;20028;-80
2022/07/16 12:25:39;;;;;;;8.88;1.90;;;;;;;;;;5085622;28;20025;-78
2022/07/16 12:28:05;;;;;;;16.00;2.45;;;;;;;;;;5086718;28;20047;-79
2022/07/16 12:30:31;;;;;;;13.00;1.98;;;;;;;;;;5085819;28;20020;-80
2022/07/16 12:32:57;;;;;;;13.80;2.60;;;;;;;;;;5090349;28;20024;-78
2022/07/16 12:35:41;;;;;;;11.98;1.70;;;;;;;;;;5091007;28;20025;-78
2022/07/16 12:38:08;;;;;;;13.32;2.10;;;;;;;;;;5089002;28;20033;-76
2022/07/16 12:40:35;;;;;;;7.18;2.00;;;;;;;;;;5084796;28;20064;-79
2022/07/16 12:43:01;;;;;;;8.80;1.73;;;;;;;;;;5087393;28;20024;-75
2022/07/16 12:45:27;;;;;;;12.55;2.08;;;;;;;;;;5094091;28;20052;-76
2022/07/16 12:47:53;;;;;;;10.00;1.95;;;;;;;;;;5094346;28;20025;-76
2022/07/16 12:50:20;;;;;;;12.52;1.95;;;;;;;;;;5091206;28;20051;-77
2022/07/16 12:52:46;;;;;;;6.88;1.70;;;;;;;;;;5088763;28;20021;-80
2022/07/16 13:00:41;;;;;;;8.07;1.75;;;;;;;;;;5081052;28;20151;-80
2022/07/16 13:03:07;;;;;;;14.07;1.92;;;;;;;;;;5080333;28;20075;-78
2022/07/16 13:05:33;;;;;;;7.00;1.70;;;;;;;;;;5079232;28;20085;-79
2022/07/16 13:07:59;;;;;;;7.75;1.65;;;;;;;;;;5080715;28;20051;-79
2022/07/16 13:10:25;;;;;;;9.05;1.45;;;;;;;;;;5079958;28;20566;-78
2022/07/16 13:12:51;;;;;;;15.38;2.05;;;;;;;;;;5079621;28;20461;-79
2022/07/16 13:15:18;;;;;;;8.65;1.77;;;;;;;;;;5079607;28;20032;-77
2022/07/16 13:17:44;;;;;;;11.73;2.28;;;;;;;;;;5079828;28;20032;-80
2022/07/16 13:20:12;;;;;;;11.07;2.63;;;;;;;;;;5079697;28;20036;-79
2022/07/16 13:22:38;;;;;;;11.02;2.35;;;;;;;;;;5078415;28;20021;-79
2022/07/16 13:25:04;;;;;;;12.73;2.50;;;;;;;;;;5079166;28;20088;-77
2022/07/16 13:27:30;;;;;;;14.73;2.22;;;;;;;;;;5078013;28;20028;-80
2022/07/16 13:29:56;;;;;;;10.45;1.77;;;;;;;;;;5075091;28;20069;-77
2022/07/16 13:32:22;;;;;;;12.15;2.05;;;;;;;;;;5086689;28;20051;-77
2022/07/16 13:34:48;;;;;;;10.13;2.42;;;;;;;;;;5074676;28;20456;-79
2022/07/16 13:37:14;;;;;;;8.68;1.98;;;;;;;;;;5077340;28;20445;-77
2022/07/16 13:39:40;;;;;;;12.93;2.22;;;;;;;;;;5082883;28;20040;-74
2022/07/16 13:42:06;;;;;;;15.07;2.55;;;;;;;;;;5078707;28;20032;-76
2022/07/16 13:44:32;;;;;;;12.05;2.10;;;;;;;;;;5076253;28;20037;-76
2022/07/16 13:46:57;;;;;;;7.68;1.83;;;;;;;;;;5080354;28;20036;-76
2022/07/16 13:49:24;;;;;;;10.82;1.95;;;;;;;;;;5079926;28;20028;-77
2022/07/16 13:51:50;;;;;;;9.73;2.38;;;;;;;;;;5085995;28;20020;-78
2022/07/16 13:54:16;;;;;;;18.08;3.17;;;;;;;;;;5084190;28;20095;-76
2022/07/16 13:56:42;;;;;;;15.88;2.63;;;;;;;;;;5083278;28;20028;-76
2022/07/16 13:59:08;;;;;;;20.00;2.65;;;;;;;;;;5090319;28;20059;-76
2022/07/16 14:01:34;;;;;;;13.85;2.30;;;;;;;;;;5094718;28;20016;-75
2022/07/16 14:04:01;;;;;;;19.35;2.10;;;;;;;;;;5097650;28;20023;-74
2022/07/16 14:06:28;;;;;;;13.75;2.42;;;;;;;;;;5095951;28;20028;-78
2022/07/16 14:08:54;;;;;;;15.68;2.67;;;;;;;;;;5093566;28;20238;-79
2022/07/16 14:11:20;;;;;;;10.48;2.28;;;;;;;;;;5079781;28;20032;-77
2022/07/16 14:13:46;;;;;;;21.40;2.95;;;;;;;;;;5080175;28;20032;-78
2022/07/16 14:16:13;;;;;;;13.98;2.08;;;;;;;;;;5077259;28;20028;-77
2022/07/16 14:18:39;;;;;;;15.65;1.85;;;;;;;;;;5080271;28;20020;-77
2022/07/16 14:21:06;;;;;;;15.07;1.90;;;;;;;;;;5080868;28;20648;-78
2022/07/16 14:23:32;;;;;;;9.25;2.38;;;;;;;;;;5082490;28;20025;-77
2022/07/16 14:25:58;;;;;;;8.98;2.35;;;;;;;;;;5083618;28;20028;-78
2022/07/16 14:28:24;;;;;;;9.05;1.92;;;;;;;;;;5084655;28;20024;-77
2022/07/16 14:30:49;;;;;;;9.48;1.50;;;;;;;;;;5085920;28;20082;-78
2022/07/16 14:33:15;;;;;;;8.50;1.83;;;;;;;;;;5086632;28;20082;-79
2022/07/16 14:35:41;;;;;;;8.60;1.88;;;;;;;;;;5085269;28;20023;-77
2022/07/16 14:38:07;;;;;;;12.50;2.20;;;;;;;;;;5085788;28;20029;-79
2022/07/16 14:40:34;;;;;;;12.90;1.67;;;;;;;;;;5088101;28;20024;-77
2022/07/16 14:42:59;;;;;;;15.80;2.30;;;;;;;;;;5087351;28;20025;-80